Time;durP1;ratioP1;P1;durP2;ratioP2;P2;SDS_P1;SDS_P2;PMS_P1;PMS_P2;Temp;Humidity;BMP_temperature;BMP_pressure;BME280_temperature;BME280_humidity;BME280_pressure;Samples;Min_cycle;Max_cycle;Signal;HPM_P1;HPM_P2
2023/06/18 00:00:40;;;;;;;6.10;5.50;;;16.00;99.90;;;;;;5086206;28;20813;-51
2023/06/18 00:03:08;;;;;;;7.13;5.57;;;16.10;99.90;;;;;;5085308;28;20483;-51
2023/06/18 00:05:34;;;;;;;7.10;5.30;;;16.10;99.90;;;;;;5084720;28;20498;-52
2023/06/18 00:08:05;;;;;;;6.43;5.00;;;16.10;99.90;;;;;;5086375;28;20521;-52
2023/06/18 00:10:32;;;;;;;7.73;6.00;;;16.00;99.90;;;;;;5086755;28;20460;-51
2023/06/18 00:12:59;;;;;;;7.00;5.73;;;15.90;99.90;;;;;;5086884;28;20449;-50
2023/06/18 00:15:26;;;;;;;6.90;5.60;;;15.80;99.90;;;;;;5086005;28;20485;-51
2023/06/18 00:17:53;;;;;;;6.93;5.70;;;15.60;99.90;;;;;;5086725;28;20530;-50
2023/06/18 00:20:20;;;;;;;6.57;5.47;;;15.60;99.90;;;;;;5086855;28;20520;-55
2023/06/18 00:22:48;;;;;;;6.70;5.70;;;15.70;99.90;;;;;;5086544;28;20438;-50
2023/06/18 00:25:16;;;;;;;7.17;6.00;;;15.80;99.90;;;;;;5086224;28;20473;-51
2023/06/18 00:27:43;;;;;;;8.33;5.63;;;15.80;99.90;;;;;;5072865;28;20453;-51
2023/06/18 00:30:11;;;;;;;8.23;6.17;;;15.60;99.90;;;;;;5072962;28;20566;-51
2023/06/18 00:32:38;;;;;;;5.83;5.23;;;15.40;99.90;;;;;;5071377;28;20432;-50
2023/06/18 00:35:06;;;;;;;10.23;5.67;;;15.40;99.90;;;;;;5072249;28;20472;-51
2023/06/18 00:37:34;;;;;;;7.70;5.77;;;15.40;99.90;;;;;;5072497;28;20527;-51
2023/06/18 00:40:01;;;;;;;6.50;5.77;;;15.40;99.90;;;;;;5072904;28;20923;-50
2023/06/18 00:42:29;;;;;;;7.00;5.50;;;15.50;99.90;;;;;;5072451;28;20525;-51
2023/06/18 00:44:57;;;;;;;7.30;5.20;;;15.50;99.90;;;;;;5072443;28;20442;-51
2023/06/18 00:47:26;;;;;;;6.50;5.30;;;15.50;99.90;;;;;;5072392;28;20907;-51
2023/06/18 00:49:55;;;;;;;6.27;5.10;;;15.40;99.90;;;;;;5072827;28;20450;-53
2023/06/18 00:52:23;;;;;;;6.47;5.00;;;15.40;99.90;;;;;;5070726;28;20818;-51
2023/06/18 00:54:51;;;;;;;8.90;6.13;;;15.30;99.90;;;;;;5069815;28;20478;-50
2023/06/18 00:57:21;;;;;;;8.33;7.00;;;15.30;99.90;;;;;;5072489;28;20512;-51
2023/06/18 00:59:51;;;;;;;9.30;6.40;;;15.30;99.90;;;;;;5072007;28;20448;-51
2023/06/18 01:02:23;;;;;;;7.83;6.63;;;15.20;99.90;;;;;;5070347;28;20848;-53
2023/06/18 01:04:53;;;;;;;7.27;5.50;;;15.10;99.90;;;;;;5069132;28;20989;-54
2023/06/18 01:07:21;;;;;;;7.70;5.37;;;15.00;99.90;;;;;;5071880;28;20450;-53
2023/06/18 01:09:53;;;;;;;8.87;6.17;;;15.00;99.90;;;;;;5071867;28;20546;-50
2023/06/18 01:12:21;;;;;;;7.13;5.50;;;15.10;99.90;;;;;;5072070;28;20501;-50
2023/06/18 01:14:51;;;;;;;8.80;6.50;;;15.10;99.90;;;;;;5072180;28;21012;-59
2023/06/18 01:17:20;;;;;;;6.40;5.40;;;15.10;99.90;;;;;;5072614;28;20550;-50
2023/06/18 01:19:51;;;;;;;8.33;6.43;;;15.00;99.90;;;;;;5072453;28;20503;-50
2023/06/18 01:22:30;;;;;;;7.67;5.90;;;15.10;99.90;;;;;;5072743;28;20440;-50
2023/06/18 01:25:02;;;;;;;5.77;4.80;;;15.10;99.90;;;;;;5072364;28;20454;-50
2023/06/18 01:27:33;;;;;;;6.63;5.17;;;14.90;99.90;;;;;;5072364;28;20451;-50
2023/06/18 01:30:03;;;;;;;5.97;4.67;;;14.90;99.90;;;;;;5072570;28;20442;-50
2023/06/18 01:32:30;;;;;;;6.00;5.40;;;14.90;99.90;;;;;;5071944;28;20451;-51
2023/06/18 01:34:57;;;;;;;7.13;5.10;;;14.80;99.90;;;;;;5070964;28;20460;-52
2023/06/18 01:37:44;;;;;;;6.60;5.67;;;14.80;99.90;;;;;;5070595;28;20580;-51
2023/06/18 01:40:31;;;;;;;6.00;5.40;;;14.80;99.90;;;;;;5070728;28;20985;-51
2023/06/18 01:43:05;;;;;;;9.00;5.73;;;14.80;99.90;;;;;;5070951;28;20530;-51
2023/06/18 01:45:41;;;;;;;6.27;5.20;;;14.90;99.90;;;;;;5070621;28;20460;-55
2023/06/18 01:48:09;;;;;;;9.50;6.00;;;14.80;99.90;;;;;;5071465;28;20468;-50
2023/06/18 01:50:38;;;;;;;6.40;5.10;;;14.80;99.90;;;;;;5071926;28;20479;-51
2023/06/18 01:53:06;;;;;;;7.23;6.53;;;14.90;99.90;;;;;;5070270;28;20941;-50
2023/06/18 01:55:34;;;;;;;8.20;6.17;;;15.00;99.90;;;;;;5071534;28;20564;-51
2023/06/18 01:58:02;;;;;;;6.70;5.13;;;14.90;99.90;;;;;;5071888;28;20791;-50
2023/06/18 02:00:29;;;;;;;7.50;5.77;;;14.80;99.90;;;;;;5071526;28;20464;-53
2023/06/18 02:02:58;;;;;;;5.40;4.80;;;14.80;99.90;;;;;;5069888;28;21038;-50
2023/06/18 02:05:25;;;;;;;11.03;5.57;;;14.90;99.90;;;;;;5071305;28;20437;-51
2023/06/18 02:07:52;;;;;;;6.33;5.70;;;14.80;99.90;;;;;;5071722;28;20510;-50
2023/06/18 02:10:19;;;;;;;6.40;5.40;;;14.90;99.90;;;;;;5071778;28;20559;-51
2023/06/18 02:12:46;;;;;;;7.67;5.40;;;14.80;99.90;;;;;;5071821;28;20450;-50
2023/06/18 02:15:14;;;;;;;10.20;6.50;;;14.70;99.90;;;;;;5071110;28;20517;-52
2023/06/18 02:17:40;;;;;;;6.30;5.60;;;14.70;99.90;;;;;;5071115;28;20535;-51
2023/06/18 02:20:10;;;;;;;8.30;5.70;;;14.60;99.90;;;;;;5071362;28;20462;-54
2023/06/18 02:22:37;;;;;;;6.53;5.83;;;14.50;99.90;;;;;;5071212;28;20454;-50
2023/06/18 02:25:05;;;;;;;7.43;5.80;;;14.50;99.90;;;;;;5071278;28;20537;-51
2023/06/18 02:27:32;;;;;;;7.13;6.17;;;14.50;99.90;;;;;;5071249;28;20998;-54
2023/06/18 02:30:00;;;;;;;7.33;6.40;;;14.40;99.90;;;;;;5071307;28;20476;-50
2023/06/18 02:32:28;;;;;;;6.53;5.47;;;14.40;99.90;;;;;;5071474;28;21023;-50
2023/06/18 02:34:56;;;;;;;9.90;6.60;;;14.40;99.90;;;;;;5070645;28;20536;-50
2023/06/18 02:37:24;;;;;;;8.07;5.50;;;14.50;99.90;;;;;;5071075;28;21016;-51
2023/06/18 02:39:51;;;;;;;5.90;5.27;;;14.50;99.90;;;;;;5070947;28;20951;-51
2023/06/18 02:42:20;;;;;;;6.13;5.47;;;14.60;99.90;;;;;;5071519;28;20480;-51
2023/06/18 02:44:48;;;;;;;7.43;5.90;;;14.60;99.90;;;;;;5071105;28;20445;-51
2023/06/18 02:47:15;;;;;;;7.53;5.60;;;14.60;99.90;;;;;;5070867;28;20462;-50
2023/06/18 02:49:41;;;;;;;6.77;5.80;;;14.70;99.90;;;;;;5070446;28;20440;-52
2023/06/18 02:52:08;;;;;;;7.47;4.80;;;14.50;99.90;;;;;;5070835;28;20461;-51
2023/06/18 02:54:37;;;;;;;8.83;5.93;;;14.50;99.90;;;;;;5069160;28;20446;-51
2023/06/18 02:57:04;;;;;;;5.27;4.77;;;14.50;99.90;;;;;;5070111;28;20582;-51
2023/06/18 02:59:31;;;;;;;7.33;5.30;;;14.50;99.90;;;;;;5070337;28;20467;-53
2023/06/18 03:01:58;;;;;;;7.50;5.23;;;14.50;99.90;;;;;;5068974;28;20496;-51
2023/06/18 03:04:25;;;;;;;7.43;5.50;;;14.60;99.90;;;;;;5070878;28;20526;-51
2023/06/18 03:06:52;;;;;;;6.30;5.23;;;14.60;99.90;;;;;;5070414;28;20474;-51
2023/06/18 03:09:19;;;;;;;6.73;5.50;;;14.70;99.90;;;;;;5070719;28;20531;-50
2023/06/18 03:11:47;;;;;;;9.57;5.30;;;14.60;99.90;;;;;;5070569;28;20542;-50
2023/06/18 03:14:14;;;;;;;7.40;5.93;;;14.50;99.90;;;;;;5070507;28;20543;-53
2023/06/18 03:16:41;;;;;;;7.00;5.63;;;14.30;99.90;;;;;;5069901;28;20491;-51
2023/06/18 03:19:08;;;;;;;6.60;5.60;;;14.30;99.90;;;;;;5070390;28;20445;-51
2023/06/18 03:21:35;;;;;;;5.90;4.80;;;14.30;99.90;;;;;;5070537;28;20515;-51
2023/06/18 03:24:02;;;;;;;8.77;5.80;;;14.30;99.90;;;;;;5070708;28;20473;-50
2023/06/18 03:26:29;;;;;;;5.80;5.20;;;14.30;99.90;;;;;;5070148;28;20524;-50
2023/06/18 03:28:58;;;;;;;5.90;5.30;;;14.30;99.90;;;;;;5070147;28;20477;-50
2023/06/18 03:31:26;;;;;;;7.87;5.60;;;14.50;99.90;;;;;;5070635;28;20467;-54
2023/06/18 03:33:53;;;;;;;6.60;5.17;;;14.30;99.90;;;;;;5070465;28;20478;-53
2023/06/18 03:36:20;;;;;;;7.60;5.30;;;14.20;99.90;;;;;;5069949;28;21086;-51
2023/06/18 03:38:47;;;;;;;6.57;5.63;;;14.10;99.90;;;;;;5069798;28;20502;-51
2023/06/18 03:41:14;;;;;;;6.83;5.20;;;14.10;99.90;;;;;;5070377;28;20462;-51
2023/06/18 03:43:41;;;;;;;7.80;5.40;;;14.10;99.90;;;;;;5070330;28;20454;-51
2023/06/18 03:46:09;;;;;;;7.43;6.10;;;14.20;99.90;;;;;;5070164;28;20472;-50
2023/06/18 03:48:37;;;;;;;5.80;5.17;;;14.30;99.90;;;;;;5070496;28;20873;-50
2023/06/18 03:51:04;;;;;;;7.93;6.37;;;14.40;99.90;;;;;;5070235;28;20457;-52
2023/06/18 03:53:36;;;;;;;8.13;6.60;;;14.30;99.90;;;;;;5068918;28;20444;-52
2023/06/18 03:56:03;;;;;;;6.40;5.17;;;14.30;99.90;;;;;;5070322;28;20535;-52
2023/06/18 03:58:30;;;;;;;6.67;5.70;;;14.20;99.90;;;;;;5069828;28;20489;-50
2023/06/18 04:00:57;;;;;;;8.00;6.00;;;14.10;99.90;;;;;;5070407;28;20492;-50
2023/06/18 04:03:26;;;;;;;7.50;5.37;;;14.10;99.90;;;;;;5072184;28;20445;-54
2023/06/18 04:05:52;;;;;;;7.10;5.80;;;14.00;99.90;;;;;;5073449;28;20441;-52
2023/06/18 04:08:20;;;;;;;6.40;5.40;;;14.10;99.90;;;;;;5073749;28;20993;-51
2023/06/18 04:10:47;;;;;;;5.80;5.20;;;14.10;99.90;;;;;;5073904;28;20505;-51
2023/06/18 04:13:15;;;;;;;8.20;6.30;;;14.20;99.90;;;;;;5073876;28;20490;-51
2023/06/18 04:15:42;;;;;;;8.03;5.37;;;14.20;99.90;;;;;;5073299;28;20509;-50
2023/06/18 04:18:09;;;;;;;7.67;5.60;;;14.00;99.90;;;;;;5073385;28;20481;-51
2023/06/18 04:20:38;;;;;;;5.57;4.50;;;14.00;99.90;;;;;;5073342;28;20564;-51
2023/06/18 04:23:06;;;;;;;8.30;6.00;;;14.10;99.90;;;;;;5073696;28;20470;-50
2023/06/18 04:25:33;;;;;;;7.47;5.83;;;14.30;99.90;;;;;;5073565;28;20524;-51
2023/06/18 04:28:00;;;;;;;6.40;5.60;;;14.40;99.90;;;;;;5073392;28;20532;-51
2023/06/18 04:30:27;;;;;;;7.00;5.20;;;14.50;99.90;;;;;;5073739;28;20500;-52
2023/06/18 04:32:54;;;;;;;5.70;4.80;;;14.40;99.90;;;;;;5073105;28;20982;-49
2023/06/18 04:35:21;;;;;;;7.53;6.00;;;14.40;99.90;;;;;;5073238;28;20528;-50
2023/06/18 04:37:49;;;;;;;6.73;5.50;;;14.50;99.90;;;;;;5073098;28;20570;-50
2023/06/18 04:40:18;;;;;;;7.63;5.60;;;14.50;99.90;;;;;;5073473;28;20470;-51
2023/06/18 04:42:46;;;;;;;7.73;5.90;;;14.70;99.90;;;;;;5073468;28;20452;-50
2023/06/18 04:45:13;;;;;;;5.80;5.20;;;14.70;99.90;;;;;;5072795;28;20440;-50
2023/06/18 04:47:40;;;;;;;9.20;5.80;;;14.50;99.90;;;;;;5073367;28;20444;-50
2023/06/18 04:50:08;;;;;;;7.00;6.23;;;14.40;99.90;;;;;;5072906;28;20464;-49
2023/06/18 04:52:35;;;;;;;5.63;5.13;;;14.30;99.90;;;;;;5071211;28;20516;-51
2023/06/18 04:55:04;;;;;;;7.27;5.93;;;14.30;99.90;;;;;;5072682;28;20538;-50
2023/06/18 04:57:31;;;;;;;5.87;5.27;;;14.40;99.90;;;;;;5072783;28;20481;-50
2023/06/18 04:59:59;;;;;;;6.80;5.97;;;14.60;99.90;;;;;;5073292;28;20474;-50
2023/06/18 05:02:26;;;;;;;9.20;6.03;;;14.60;99.90;;;;;;5071216;28;20441;-50
2023/06/18 05:04:52;;;;;;;6.43;5.47;;;14.70;99.90;;;;;;5072222;28;20485;-52
2023/06/18 05:07:19;;;;;;;7.20;5.87;;;14.70;99.90;;;;;;5072798;28;20445;-51
2023/06/18 05:09:46;;;;;;;7.30;6.40;;;14.70;99.90;;;;;;5072394;28;20474;-51
2023/06/18 05:12:15;;;;;;;6.67;5.90;;;14.70;99.90;;;;;;5072217;28;20538;-54
2023/06/18 05:14:42;;;;;;;7.03;5.60;;;14.60;99.90;;;;;;5071703;28;20480;-50
2023/06/18 05:17:09;;;;;;;7.10;5.17;;;14.70;99.90;;;;;;5070869;28;21075;-50
2023/06/18 05:19:36;;;;;;;7.50;5.70;;;14.90;99.90;;;;;;5071040;28;20499;-52
2023/06/18 05:22:03;;;;;;;8.20;5.00;;;14.90;99.90;;;;;;5070983;28;20520;-52
2023/06/18 05:24:29;;;;;;;7.73;5.63;;;15.00;99.90;;;;;;5071434;28;20530;-50
2023/06/18 05:26:56;;;;;;;6.07;5.47;;;15.00;99.90;;;;;;5071333;28;20878;-50
2023/06/18 05:29:25;;;;;;;7.20;5.47;;;15.10;99.90;;;;;;5072705;28;20518;-50
2023/06/18 05:31:52;;;;;;;7.70;6.07;;;15.10;99.90;;;;;;5072152;28;20496;-50
2023/06/18 05:34:19;;;;;;;7.50;5.63;;;15.10;99.90;;;;;;5071710;28;20868;-51
2023/06/18 05:36:45;;;;;;;7.80;5.63;;;15.10;99.90;;;;;;5070403;28;20564;-50
2023/06/18 05:39:12;;;;;;;6.63;4.93;;;15.00;99.90;;;;;;5070960;28;20525;-54
2023/06/18 05:41:40;;;;;;;6.73;5.10;;;15.00;99.90;;;;;;5070998;28;20527;-50
2023/06/18 05:44:07;;;;;;;6.07;5.43;;;15.00;99.90;;;;;;5071009;28;20445;-53
2023/06/18 05:46:35;;;;;;;8.10;6.37;;;15.00;99.90;;;;;;5070726;28;20534;-50
2023/06/18 05:49:02;;;;;;;8.83;5.90;;;15.30;99.90;;;;;;5071070;28;20524;-50
2023/06/18 05:51:29;;;;;;;5.23;4.70;;;15.30;99.90;;;;;;5071950;28;20498;-50
2023/06/18 05:53:56;;;;;;;8.47;5.57;;;15.30;99.90;;;;;;5070247;28;20524;-50
2023/06/18 05:56:23;;;;;;;10.70;6.23;;;15.40;99.90;;;;;;5071365;28;20962;-50
2023/06/18 05:58:49;;;;;;;6.10;5.43;;;15.50;99.90;;;;;;5072039;28;20511;-53
2023/06/18 06:01:16;;;;;;;6.67;4.80;;;15.70;99.90;;;;;;5071951;28;20463;-50
2023/06/18 06:03:45;;;;;;;6.10;5.50;;;15.70;99.90;;;;;;5069670;28;20488;-50
2023/06/18 06:06:12;;;;;;;6.80;5.20;;;16.10;99.90;;;;;;5070841;28;20477;-50
2023/06/18 06:08:38;;;;;;;5.80;4.90;;;16.90;99.90;;;;;;5071227;28;20441;-50
2023/06/18 06:11:06;;;;;;;7.20;5.97;;;17.60;99.90;;;;;;5068602;28;20490;-50
2023/06/18 06:13:33;;;;;;;8.33;6.63;;;18.50;99.90;;;;;;5071058;28;20879;-50
2023/06/18 06:16:00;;;;;;;7.63;6.23;;;19.10;99.90;;;;;;5070744;28;20441;-51
2023/06/18 06:18:27;;;;;;;8.70;6.57;;;19.70;99.90;;;;;;5067922;28;20473;-53
2023/06/18 06:20:55;;;;;;;6.10;5.47;;;19.90;99.90;;;;;;5069421;28;20484;-50
2023/06/18 06:23:22;;;;;;;7.87;6.50;;;19.90;99.90;;;;;;5070710;28;20511;-51
2023/06/18 06:25:49;;;;;;;7.10;5.80;;;19.60;99.90;;;;;;5070155;28;20520;-54
2023/06/18 06:28:16;;;;;;;6.80;6.10;;;19.40;99.90;;;;;;5070586;28;20472;-50
2023/06/18 06:30:43;;;;;;;8.00;6.20;;;19.30;99.90;;;;;;5071274;28;20464;-52
2023/06/18 06:33:10;;;;;;;6.87;5.70;;;19.10;99.90;;;;;;5070671;28;20440;-50
2023/06/18 06:35:37;;;;;;;9.27;5.90;;;18.90;99.90;;;;;;5070514;28;20435;-50
2023/06/18 06:38:05;;;;;;;6.40;5.80;;;18.60;99.90;;;;;;5070293;28;20571;-51
2023/06/18 06:40:32;;;;;;;6.33;5.10;;;18.60;99.90;;;;;;5070929;28;20491;-50
2023/06/18 06:42:59;;;;;;;6.63;5.60;;;18.50;99.90;;;;;;5070601;28;20521;-50
2023/06/18 06:45:27;;;;;;;7.50;5.83;;;18.40;99.90;;;;;;5070032;28;20472;-51
2023/06/18 06:47:54;;;;;;;8.07;6.73;;;18.40;99.90;;;;;;5070062;28;20439;-50
2023/06/18 06:50:21;;;;;;;5.70;4.83;;;18.30;99.90;;;;;;5070055;28;21025;-51
2023/06/18 06:52:48;;;;;;;7.30;5.83;;;18.10;99.90;;;;;;5068412;28;20814;-51
2023/06/18 06:55:17;;;;;;;6.47;5.17;;;18.20;99.90;;;;;;5069950;28;20542;-51
2023/06/18 06:57:44;;;;;;;8.50;6.27;;;18.20;99.90;;;;;;5070066;28;20559;-50
2023/06/18 07:00:11;;;;;;;6.83;5.80;;;18.30;99.90;;;;;;5070797;28;20490;-50
2023/06/18 07:02:38;;;;;;;5.83;5.23;;;18.30;99.90;;;;;;5068406;28;20464;-53
2023/06/18 07:05:06;;;;;;;7.53;5.37;;;18.30;99.90;;;;;;5069732;28;20439;-50
2023/06/18 07:07:33;;;;;;;5.57;5.00;;;18.30;99.90;;;;;;5070313;28;20435;-52
2023/06/18 07:10:00;;;;;;;6.73;6.03;;;18.50;99.90;;;;;;5070182;28;20440;-51
2023/06/18 07:12:28;;;;;;;7.50;5.67;;;18.30;99.90;;;;;;5070356;28;20443;-53
2023/06/18 07:14:55;;;;;;;5.63;5.03;;;18.60;99.90;;;;;;5069590;28;20455;-53
2023/06/18 07:17:22;;;;;;;6.50;5.83;;;18.60;99.90;;;;;;5067802;28;20564;-50
2023/06/18 07:19:49;;;;;;;6.30;5.70;;;18.80;99.90;;;;;;5070085;28;20500;-50
2023/06/18 07:22:16;;;;;;;7.20;5.20;;;18.50;99.90;;;;;;5069963;28;22335;-51
2023/06/18 07:24:43;;;;;;;8.13;7.33;;;18.50;99.90;;;;;;5067806;28;20463;-50
2023/06/18 07:27:09;;;;;;;7.60;6.37;;;18.50;99.90;;;;;;5070158;28;20520;-53
2023/06/18 07:29:38;;;;;;;6.20;5.60;;;18.60;99.90;;;;;;5070071;28;20503;-50
2023/06/18 07:32:05;;;;;;;7.27;6.13;;;18.70;99.90;;;;;;5070205;28;21008;-50
2023/06/18 07:34:32;;;;;;;8.80;6.67;;;18.80;99.20;;;;;;5070506;28;20882;-53
2023/06/18 07:36:59;;;;;;;9.37;6.70;;;18.70;99.90;;;;;;5071452;28;20554;-51
2023/06/18 07:39:27;;;;;;;7.30;6.17;;;18.70;99.50;;;;;;5073717;28;20497;-50
2023/06/18 07:41:54;;;;;;;6.57;4.77;;;18.70;99.90;;;;;;5074216;28;20456;-50
2023/06/18 07:44:21;;;;;;;6.67;5.93;;;19.10;99.90;;;;;;5073820;28;20437;-52
2023/06/18 07:46:50;;;;;;;5.90;5.33;;;19.00;99.90;;;;;;5073590;28;20510;-50
2023/06/18 07:49:20;;;;;;;9.30;6.70;;;19.20;99.90;;;;;;5073655;28;20448;-50
2023/06/18 07:51:47;;;;;;;7.10;6.40;;;19.20;99.90;;;;;;5073986;28;20472;-50
2023/06/18 07:54:14;;;;;;;7.70;5.27;;;19.10;99.90;;;;;;5072274;28;20528;-50
2023/06/18 07:56:41;;;;;;;7.23;5.87;;;19.20;99.90;;;;;;5071315;28;20525;-50
2023/06/18 07:59:09;;;;;;;7.13;4.97;;;19.60;99.90;;;;;;5073878;28;20448;-50
2023/06/18 08:01:37;;;;;;;6.43;5.50;;;19.70;99.50;;;;;;5073228;28;20549;-53
2023/06/18 08:04:05;;;;;;;9.63;6.30;;;20.00;99.30;;;;;;5073253;28;20504;-52
2023/06/18 08:06:32;;;;;;;5.93;4.67;;;19.80;97.10;;;;;;5073489;28;20460;-50
2023/06/18 08:08:59;;;;;;;6.03;4.83;;;20.00;99.10;;;;;;5073241;28;20882;-50
2023/06/18 08:11:26;;;;;;;8.17;4.93;;;20.20;99.30;;;;;;5073547;28;20463;-51
2023/06/18 08:13:53;;;;;;;6.00;5.30;;;20.10;99.90;;;;;;5073539;28;20493;-50
2023/06/18 08:16:20;;;;;;;7.27;5.60;;;20.00;99.20;;;;;;5072827;28;20555;-53
2023/06/18 08:18:47;;;;;;;7.13;5.20;;;19.80;99.90;;;;;;5060105;28;20508;-50
2023/06/18 08:21:15;;;;;;;8.77;5.57;;;20.20;99.40;;;;;;5071527;28;20541;-50
2023/06/18 08:23:42;;;;;;;8.13;5.93;;;20.20;99.20;;;;;;5073390;28;20529;-51
2023/06/18 08:26:09;;;;;;;6.00;5.40;;;20.40;97.90;;;;;;5069897;28;20528;-55
2023/06/18 08:28:36;;;;;;;6.90;5.73;;;20.40;98.30;;;;;;5061512;28;20954;-52
2023/06/18 08:31:03;;;;;;;7.17;5.43;;;20.60;97.20;;;;;;5066775;28;20539;-54
2023/06/18 08:33:30;;;;;;;8.63;6.17;;;20.50;96.90;;;;;;5068150;28;20440;-52
2023/06/18 08:35:57;;;;;;;6.80;6.10;;;20.30;96.80;;;;;;5061994;28;20452;-53
2023/06/18 08:38:25;;;;;;;8.30;6.20;;;20.10;98.20;;;;;;5068980;28;21002;-51
2023/06/18 08:40:54;;;;;;;6.77;5.90;;;20.20;98.00;;;;;;5069565;28;20567;-51
2023/06/18 08:43:26;;;;;;;6.17;5.17;;;20.30;96.80;;;;;;5069351;28;20524;-51
2023/06/18 08:45:54;;;;;;;7.87;5.70;;;20.50;97.80;;;;;;5068778;28;20449;-52
2023/06/18 08:48:25;;;;;;;9.23;6.00;;;20.60;96.70;;;;;;5068493;28;20518;-53
2023/06/18 08:50:59;;;;;;;6.50;5.70;;;20.80;98.10;;;;;;5068865;28;20469;-51
2023/06/18 08:53:39;;;;;;;7.93;6.83;;;20.80;97.30;;;;;;5067834;28;20455;-51
2023/06/18 08:56:08;;;;;;;6.43;5.20;;;20.80;96.70;;;;;;5067333;28;20442;-54
2023/06/18 08:58:39;;;;;;;7.67;6.20;;;20.90;96.90;;;;;;5068802;28;20538;-52
2023/06/18 09:01:07;;;;;;;8.27;6.20;;;21.00;97.50;;;;;;5067943;28;20557;-52
2023/06/18 09:03:37;;;;;;;7.43;5.87;;;20.90;98.10;;;;;;5066923;28;20480;-51
2023/06/18 09:06:05;;;;;;;7.03;5.63;;;20.90;97.70;;;;;;5068137;28;20776;-51
2023/06/18 09:08:34;;;;;;;7.07;6.13;;;20.80;97.30;;;;;;5068643;28;20441;-51
2023/06/18 09:11:02;;;;;;;7.00;6.00;;;20.80;96.80;;;;;;5069265;28;20456;-53
2023/06/18 09:13:29;;;;;;;5.77;5.17;;;21.00;97.00;;;;;;5069411;28;20541;-51
2023/06/18 09:15:56;;;;;;;7.13;6.33;;;21.20;98.80;;;;;;5068378;28;20483;-51
2023/06/18 09:18:25;;;;;;;6.23;5.43;;;21.40;97.10;;;;;;5068287;28;20483;-52
2023/06/18 09:20:53;;;;;;;5.53;4.97;;;21.40;93.40;;;;;;5068746;28;20874;-51
2023/06/18 09:23:20;;;;;;;6.20;5.30;;;21.40;94.60;;;;;;5068808;28;20437;-53
2023/06/18 09:25:52;;;;;;;7.23;6.13;;;21.60;95.30;;;;;;5064345;28;20519;-54
2023/06/18 09:28:20;;;;;;;6.83;6.13;;;21.70;95.20;;;;;;5068201;28;20839;-53
2023/06/18 09:30:52;;;;;;;6.30;4.67;;;21.80;94.50;;;;;;5066196;28;20546;-52
2023/06/18 09:33:28;;;;;;;6.87;5.67;;;21.90;93.70;;;;;;5068520;28;20451;-52
2023/06/18 09:36:06;;;;;;;5.80;5.17;;;22.00;93.30;;;;;;5066373;28;20447;-54
2023/06/18 09:38:34;;;;;;;7.00;6.30;;;22.10;95.80;;;;;;5066051;28;20574;-52
2023/06/18 09:41:04;;;;;;;7.20;6.37;;;22.10;94.70;;;;;;5068544;28;20460;-55
2023/06/18 09:43:35;;;;;;;6.40;5.10;;;22.10;94.80;;;;;;5069305;28;20440;-53
2023/06/18 09:46:05;;;;;;;6.13;5.17;;;22.20;96.00;;;;;;5067539;28;20444;-54
2023/06/18 09:48:34;;;;;;;8.27;6.20;;;22.30;95.40;;;;;;5068011;28;20499;-52
2023/06/18 09:51:01;;;;;;;8.00;6.17;;;22.30;94.40;;;;;;5068017;28;20866;-52
2023/06/18 09:53:28;;;;;;;6.40;5.63;;;22.40;95.70;;;;;;5066450;28;20441;-54
2023/06/18 09:56:07;;;;;;;7.17;4.60;;;22.40;94.60;;;;;;5067813;28;20540;-52
2023/06/18 09:58:42;;;;;;;6.67;5.87;;;22.50;95.90;;;;;;5066579;28;20527;-52
2023/06/18 10:01:09;;;;;;;7.53;5.80;;;22.70;95.50;;;;;;5066269;28;20492;-53
2023/06/18 10:03:36;;;;;;;8.87;6.60;;;22.70;97.00;;;;;;5066011;28;20529;-52
2023/06/18 10:06:12;;;;;;;5.47;4.53;;;22.80;96.00;;;;;;5067687;28;20481;-55
2023/06/18 10:08:42;;;;;;;6.20;5.30;;;23.00;96.30;;;;;;5067290;28;20504;-53
2023/06/18 10:11:10;;;;;;;6.50;5.40;;;23.10;95.20;;;;;;5067777;28;20464;-54
2023/06/18 10:13:42;;;;;;;6.63;4.60;;;23.20;96.70;;;;;;5068184;28;20896;-54
2023/06/18 10:16:10;;;;;;;5.63;4.17;;;23.30;94.90;;;;;;5066846;28;20454;-52
2023/06/18 10:18:38;;;;;;;6.00;5.20;;;23.30;95.70;;;;;;5067557;28;20516;-54
2023/06/18 10:21:06;;;;;;;7.13;6.33;;;23.40;95.10;;;;;;5067698;28;21022;-52
2023/06/18 10:23:34;;;;;;;7.63;6.07;;;23.40;95.30;;;;;;5068290;28;20527;-53
2023/06/18 10:26:03;;;;;;;7.60;6.33;;;23.50;94.70;;;;;;5066170;28;20445;-53
2023/06/18 10:28:31;;;;;;;6.90;6.20;;;23.40;95.60;;;;;;5067215;28;21092;-52
2023/06/18 10:31:00;;;;;;;8.33;6.47;;;23.30;94.90;;;;;;5067083;28;20492;-53
2023/06/18 10:33:28;;;;;;;7.13;5.07;;;23.40;95.20;;;;;;5056649;28;20982;-53
2023/06/18 10:35:55;;;;;;;7.20;6.20;;;23.50;96.00;;;;;;5068033;28;20437;-53
2023/06/18 10:38:22;;;;;;;6.60;4.60;;;23.80;97.80;;;;;;5068648;28;20516;-52
2023/06/18 10:40:49;;;;;;;5.60;5.00;;;23.80;96.00;;;;;;5070317;28;20878;-53
2023/06/18 10:43:16;;;;;;;6.40;4.50;;;23.90;96.50;;;;;;5069950;28;20480;-52
2023/06/18 10:46:12;;;;;;;6.50;4.97;;;24.20;97.60;;;;;;5070255;28;20444;-53
2023/06/18 10:48:40;;;;;;;5.80;4.73;;;24.20;94.90;;;;;;5070880;28;20436;-52
2023/06/18 10:51:17;;;;;;;7.17;5.57;;;24.30;95.80;;;;;;5070724;28;20483;-52
2023/06/18 10:53:45;;;;;;;5.87;5.17;;;24.30;93.40;;;;;;5069214;28;20535;-52
2023/06/18 10:56:15;;;;;;;6.23;4.80;;;24.40;98.60;;;;;;5069185;28;20566;-52
2023/06/18 10:58:43;;;;;;;6.20;5.07;;;24.40;94.70;;;;;;5070688;28;20484;-52
2023/06/18 11:01:26;;;;;;;6.17;5.57;;;24.60;93.70;;;;;;5070662;28;20535;-52
2023/06/18 11:04:10;;;;;;;7.17;5.83;;;24.60;93.80;;;;;;5069261;28;20448;-52
2023/06/18 11:06:38;;;;;;;6.60;5.17;;;24.50;94.90;;;;;;5070626;28;20460;-52
2023/06/18 11:09:14;;;;;;;6.73;5.00;;;24.60;95.20;;;;;;5070706;28;20432;-50
2023/06/18 11:11:50;;;;;;;8.77;6.53;;;24.60;93.60;;;;;;5070299;28;20455;-52
2023/06/18 11:14:21;;;;;;;7.40;5.80;;;24.70;95.60;;;;;;5071075;28;20626;-52
2023/06/18 11:17:10;;;;;;;6.03;5.43;;;24.90;92.20;;;;;;5070618;28;20444;-52
2023/06/18 11:19:38;;;;;;;10.43;5.40;;;24.90;93.20;;;;;;5070189;28;20571;-52
2023/06/18 11:22:06;;;;;;;6.70;6.00;;;25.10;94.50;;;;;;5070662;28;20471;-52
2023/06/18 11:24:34;;;;;;;8.07;6.40;;;25.00;94.40;;;;;;5070770;28;20809;-52
2023/06/18 11:27:01;;;;;;;7.13;5.70;;;25.20;95.80;;;;;;5066791;28;20539;-53
2023/06/18 11:29:32;;;;;;;6.77;5.67;;;25.20;92.20;;;;;;5090696;22;20934;-77
2023/06/18 11:31:59;;;;;;;7.10;6.10;;;25.20;94.10;;;;;;5051107;28;20813;-76
2023/06/18 11:34:28;;;;;;;6.07;5.10;;;25.30;93.00;;;;;;5050884;28;20880;-77
2023/06/18 11:36:54;;;;;;;5.40;4.50;;;25.50;93.40;;;;;;5050258;28;20566;-77
2023/06/18 11:39:21;;;;;;;6.27;5.30;;;25.50;94.00;;;;;;5050435;28;20481;-77
2023/06/18 11:41:48;;;;;;;5.30;4.80;;;25.70;92.70;;;;;;5050450;28;20438;-77
2023/06/18 11:44:15;;;;;;;6.70;6.00;;;25.90;92.70;;;;;;5050611;28;20803;-77
2023/06/18 11:46:42;;;;;;;5.90;5.30;;;25.90;90.30;;;;;;5050677;28;20539;-77
2023/06/18 11:49:13;;;;;;;5.60;5.00;;;25.80;91.10;;;;;;5050113;28;20548;-77
2023/06/18 11:51:42;;;;;;;6.87;5.67;;;25.90;92.00;;;;;;5050491;28;20870;-77
2023/06/18 11:54:09;;;;;;;7.40;5.67;;;25.90;90.90;;;;;;5048472;28;20521;-77
2023/06/18 11:56:36;;;;;;;5.90;4.63;;;25.80;90.40;;;;;;5049958;28;20480;-77
2023/06/18 11:59:03;;;;;;;16.53;5.07;;;25.70;90.00;;;;;;5050039;28;20908;-77
2023/06/18 12:01:32;;;;;;;6.17;5.00;;;25.70;91.00;;;;;;5050010;28;21010;-77
2023/06/18 12:04:03;;;;;;;6.43;5.20;;;25.60;91.60;;;;;;5049746;28;20528;-77
2023/06/18 12:06:30;;;;;;;7.50;5.17;;;25.80;91.40;;;;;;5070146;28;20456;-77
2023/06/18 12:09:07;;;;;;;6.87;5.53;;;25.80;90.30;;;;;;5070268;28;20441;-77
2023/06/18 12:11:46;;;;;;;7.60;6.27;;;25.70;89.70;;;;;;5070700;28;20448;-77
2023/06/18 12:14:21;;;;;;;6.40;5.03;;;25.60;90.10;;;;;;5070300;28;20816;-77
2023/06/18 12:16:53;;;;;;;6.07;5.47;;;25.50;92.20;;;;;;5069897;28;20910;-77
2023/06/18 12:19:21;;;;;;;6.80;5.80;;;25.30;93.10;;;;;;5070388;28;20533;-77
2023/06/18 12:21:48;;;;;;;5.30;4.80;;;25.20;94.80;;;;;;5070585;28;20459;-77
2023/06/18 12:24:16;;;;;;;6.80;6.10;;;25.10;95.10;;;;;;5074025;28;20463;-77
2023/06/18 12:26:43;;;;;;;6.90;5.67;;;25.40;99.50;;;;;;5073711;28;20483;-77
2023/06/18 12:29:11;;;;;;;6.93;5.93;;;25.60;97.60;;;;;;5073914;28;20473;-76
2023/06/18 12:31:38;;;;;;;6.50;5.13;;;25.70;95.60;;;;;;5073765;28;20450;-76
2023/06/18 12:34:06;;;;;;;7.20;4.83;;;25.90;95.40;;;;;;5074035;28;20440;-77
2023/06/18 12:36:33;;;;;;;6.53;5.30;;;25.90;91.30;;;;;;5073193;28;20977;-77
2023/06/18 12:39:00;;;;;;;6.10;4.80;;;26.10;88.50;;;;;;5073376;28;20569;-75
2023/06/18 12:41:29;;;;;;;6.37;4.93;;;26.30;89.50;;;;;;5073556;28;20441;-77
2023/06/18 12:43:56;;;;;;;7.10;5.60;;;26.40;89.70;;;;;;5074000;28;20475;-77
2023/06/18 12:46:27;;;;;;;6.07;4.90;;;26.60;83.60;;;;;;5073348;28;20531;-76
2023/06/18 12:48:57;;;;;;;8.30;5.43;;;26.60;89.10;;;;;;5073204;28;20472;-76
2023/06/18 12:51:42;;;;;;;5.80;5.10;;;26.70;83.40;;;;;;5073408;28;20444;-77